createdAt,value
2024-05-09T00:01:24.418Z,9.53
2024-05-09T00:03:56.259Z,9.43
2024-05-09T00:06:35.364Z,9.38
2024-05-09T00:09:07.222Z,9.35
2024-05-09T00:11:42.694Z,9.31
2024-05-09T00:14:13.543Z,9.32
2024-05-09T00:16:44.543Z,9.37
2024-05-09T00:19:15.825Z,9.34
2024-05-09T00:21:55.970Z,9.31
2024-05-09T00:24:26.725Z,9.25
2024-05-09T00:26:57.502Z,9.20
2024-05-09T00:29:30.974Z,9.18
2024-05-09T00:32:01.573Z,9.17
2024-05-09T00:34:31.908Z,9.18
2024-05-09T00:37:05.747Z,9.16
2024-05-09T00:39:36.396Z,9.19
2024-05-09T00:42:07.328Z,9.22
2024-05-09T00:44:37.608Z,9.23
2024-05-09T00:47:10.526Z,9.30
2024-05-09T00:49:41.149Z,9.33
2024-05-09T00:52:14.719Z,9.37
2024-05-09T00:54:45.821Z,9.39
2024-05-09T00:57:16.776Z,9.41
2024-05-09T00:59:47.051Z,9.47
2024-05-09T01:02:18.945Z,9.57
2024-05-09T01:04:50.268Z,9.58
2024-05-09T01:07:23.858Z,9.55
2024-05-09T01:09:56.567Z,9.58
2024-05-09T01:12:27.698Z,9.63
2024-05-09T01:14:58.182Z,9.67
2024-05-09T01:17:28.913Z,9.73
2024-05-09T01:20:01.904Z,9.80
2024-05-09T01:22:37.143Z,9.84
2024-05-09T01:25:10.337Z,9.86
2024-05-09T01:27:42.793Z,9.89
2024-05-09T01:30:17.381Z,9.94
2024-05-09T01:32:52.065Z,9.95
2024-05-09T01:35:23.883Z,9.97
2024-05-09T01:37:54.346Z,9.98
2024-05-09T01:40:36.327Z,10.03
2024-05-09T01:43:11.056Z,10.09
2024-05-09T01:45:42.399Z,10.11
2024-05-09T01:48:12.959Z,10.13
2024-05-09T01:50:43.802Z,10.11
2024-05-09T01:53:17.284Z,10.14
2024-05-09T01:55:50.222Z,10.12
2024-05-09T01:58:20.719Z,10.13
2024-05-09T02:00:51.555Z,10.12
2024-05-09T02:03:21.826Z,10.13
2024-05-09T02:05:52.700Z,10.13
2024-05-09T02:08:24.505Z,10.16
2024-05-09T02:10:57.330Z,10.20
2024-05-09T02:13:27.562Z,10.21
2024-05-09T02:15:58.881Z,10.25
2024-05-09T02:18:28.962Z,10.26
2024-05-09T02:20:59.490Z,10.27
2024-05-09T02:23:29.996Z,10.30
2024-05-09T02:26:02.929Z,10.31
2024-05-09T02:28:32.999Z,10.31
2024-05-09T02:31:03.133Z,10.31
2024-05-09T02:33:33.855Z,10.29
2024-05-09T02:36:04.506Z,10.28
2024-05-09T02:38:32.098Z,10.30
2024-05-09T02:41:05.162Z,10.28
2024-05-09T02:43:32.931Z,10.26
2024-05-09T02:46:03.562Z,10.21
2024-05-09T02:48:31.549Z,10.13
2024-05-09T02:51:04.065Z,10.07
2024-05-09T02:53:31.700Z,10.05
2024-05-09T02:56:04.630Z,9.97
2024-05-09T02:58:32.087Z,9.90
2024-05-09T03:01:02.280Z,9.88
2024-05-09T03:03:30.600Z,9.87
2024-05-09T03:06:05.891Z,9.85
2024-05-09T03:08:35.257Z,9.78
2024-05-09T03:11:08.782Z,9.69
2024-05-09T03:13:41.494Z,9.60
2024-05-09T03:16:11.928Z,9.54
2024-05-09T03:18:40.937Z,9.48
2024-05-09T03:21:11.510Z,9.38
2024-05-09T03:23:41.110Z,9.27
2024-05-09T03:26:18.722Z,9.17
2024-05-09T03:28:46.961Z,9.05
2024-05-09T03:31:17.218Z,8.95
2024-05-09T03:33:44.913Z,8.84
2024-05-09T03:36:15.416Z,8.74
2024-05-09T03:38:45.587Z,8.66
2024-05-09T03:41:18.310Z,8.59
2024-05-09T03:43:49.010Z,8.55
2024-05-09T03:46:16.541Z,8.53
2024-05-09T03:48:47.248Z,8.48
2024-05-09T03:51:14.916Z,8.40
2024-05-09T03:53:45.102Z,8.33
2024-05-09T03:56:15.379Z,8.29
2024-05-09T03:58:46.066Z,8.30
2024-05-09T04:01:13.585Z,8.25
2024-05-09T04:03:44.043Z,8.23
2024-05-09T04:06:11.667Z,8.24
2024-05-09T04:08:41.846Z,8.31
2024-05-09T04:11:09.474Z,8.33
2024-05-09T04:13:43.104Z,8.34
2024-05-09T04:16:13.789Z,8.36
2024-05-09T04:18:44.063Z,8.38
2024-05-09T04:21:16.956Z,8.35
2024-05-09T04:23:45.247Z,8.35
2024-05-09T04:26:15.676Z,8.36
2024-05-09T04:28:45.945Z,8.36
2024-05-09T04:31:16.145Z,8.42
2024-05-09T04:33:44.068Z,8.40
2024-05-09T04:36:14.762Z,8.41
2024-05-09T04:38:42.235Z,8.41
2024-05-09T04:41:12.459Z,8.43
2024-05-09T04:43:41.641Z,8.47
2024-05-09T04:46:14.326Z,8.54
2024-05-09T04:48:41.910Z,8.64
2024-05-09T04:51:12.468Z,8.78
2024-05-09T04:53:40.197Z,8.94
2024-05-09T04:56:12.421Z,9.01
2024-05-09T04:58:40.011Z,9.08
2024-05-09T05:01:13.885Z,9.15
2024-05-09T05:03:42.089Z,9.17
2024-05-09T05:06:12.417Z,9.26
2024-05-09T05:08:40.255Z,9.29
2024-05-09T05:11:11.432Z,9.38
2024-05-09T05:13:41.529Z,9.40
2024-05-09T05:16:15.085Z,9.45
2024-05-09T05:18:44.444Z,9.54
2024-05-09T05:21:15.140Z,9.65
2024-05-09T05:23:43.100Z,9.65
2024-05-09T05:26:13.555Z,9.64
2024-05-09T05:28:41.080Z,9.82
2024-05-09T05:31:14.208Z,9.81
2024-05-09T05:33:42.102Z,9.88
2024-05-09T05:36:12.579Z,10.00
2024-05-09T05:38:40.177Z,10.06
2024-05-09T05:41:10.556Z,10.16
2024-05-09T05:43:38.435Z,10.16
2024-05-09T05:46:08.550Z,10.14
2024-05-09T05:48:38.705Z,10.28
2024-05-09T05:51:09.925Z,10.33
2024-05-09T05:53:40.189Z,10.48
2024-05-09T05:56:12.895Z,10.47
2024-05-09T13:36:31.343Z,24.23
2024-05-09T14:20:30.059Z,25.98
2024-05-09T18:25:34.418Z,18.63
2024-05-09T18:54:04.500Z,17.33
2024-05-09T18:56:33.215Z,17.24
2024-05-09T18:59:31.144Z,17.16
2024-05-09T19:03:14.925Z,17.07
2024-05-09T19:05:58.759Z,16.88
2024-05-09T19:08:49.505Z,16.76
2024-05-09T19:11:19.905Z,16.65
2024-05-09T19:13:47.500Z,16.48
2024-05-09T19:16:18.838Z,16.33
2024-05-09T19:18:46.750Z,16.19
2024-05-09T19:21:22.736Z,16.03
2024-05-09T19:23:52.446Z,15.86
2024-05-09T19:26:22.853Z,15.80
2024-05-09T19:28:53.171Z,15.79
2024-05-09T19:31:23.730Z,15.68
2024-05-09T19:33:53.947Z,15.61
2024-05-09T19:45:50.390Z,15.09
2024-05-09T19:49:02.652Z,15.09
2024-05-09T20:00:12.087Z,14.63
2024-05-09T20:02:51.144Z,14.60
2024-05-09T20:05:21.780Z,14.51
2024-05-09T20:07:49.722Z,14.41
2024-05-09T20:10:32.704Z,14.43
2024-05-09T20:13:11.786Z,14.56
2024-05-09T20:15:42.036Z,14.61
2024-05-09T20:18:13.799Z,14.56
2024-05-09T20:20:45.339Z,14.51
2024-05-09T20:23:16.201Z,14.39
2024-05-09T20:25:47.884Z,14.30
2024-05-09T20:28:15.570Z,14.27
2024-05-09T20:30:46.148Z,14.31
2024-05-09T20:33:17.822Z,14.26
2024-05-09T20:35:48.354Z,14.20
2024-05-09T20:38:15.901Z,14.16
2024-05-09T20:40:47.376Z,14.12
2024-05-09T20:43:15.221Z,14.23
2024-05-09T20:45:48.132Z,14.16
2024-05-09T20:48:18.484Z,14.11
2024-05-09T20:50:52.212Z,14.00
2024-05-09T20:53:20.081Z,13.91
2024-05-09T20:55:50.607Z,13.79
2024-05-09T20:58:18.399Z,13.75
2024-05-09T21:00:49.097Z,13.62
2024-05-09T21:03:19.656Z,13.61
2024-05-09T21:05:51.174Z,13.54
2024-05-09T21:08:18.802Z,13.48
2024-05-09T21:10:54.459Z,13.52
2024-05-09T21:13:22.391Z,13.47
2024-05-09T21:15:53.861Z,13.43
2024-05-09T21:18:23.986Z,13.34
2024-05-09T21:20:54.134Z,13.28
2024-05-09T21:23:24.396Z,13.22
2024-05-09T21:25:54.528Z,13.29
2024-05-09T21:28:23.221Z,13.33
2024-05-09T21:30:56.111Z,13.25
2024-05-09T21:33:26.347Z,13.19
2024-05-09T21:35:57.419Z,13.16
2024-05-09T21:38:28.624Z,13.01
2024-05-09T21:41:00.079Z,12.90
2024-05-09T21:43:29.692Z,12.88
2024-05-09T21:46:00.119Z,12.87
2024-05-09T21:48:30.946Z,12.94
2024-05-09T21:51:01.202Z,12.84
2024-05-09T21:53:29.647Z,12.82
2024-05-09T21:56:09.138Z,12.80
2024-05-09T21:58:40.575Z,12.66
2024-05-09T22:01:09.144Z,12.55
2024-05-09T22:03:42.389Z,12.44
2024-05-09T22:06:09.886Z,12.34
2024-05-09T22:08:41.584Z,12.28
2024-05-09T22:11:10.974Z,12.25
2024-05-09T22:13:41.120Z,12.24
2024-05-09T22:16:08.918Z,12.22
2024-05-09T22:18:41.889Z,12.25
2024-05-09T22:21:14.042Z,12.23
2024-05-09T22:23:45.506Z,12.12
2024-05-09T22:26:13.044Z,12.02
2024-05-09T22:28:43.280Z,11.99
2024-05-09T22:31:11.382Z,12.03
2024-05-09T22:33:47.821Z,12.00
2024-05-09T22:36:19.243Z,11.98
2024-05-09T22:38:51.394Z,11.96
2024-05-09T22:41:19.181Z,12.20
2024-05-09T22:43:49.567Z,12.14
2024-05-09T22:46:17.197Z,12.17
2024-05-09T22:48:47.775Z,12.31
2024-05-09T22:51:15.794Z,12.24
2024-05-09T22:53:48.485Z,12.27
2024-05-09T22:56:26.762Z,12.23
2024-05-09T22:59:03.321Z,12.20
2024-05-09T23:01:31.201Z,12.01
2024-05-09T23:04:02.513Z,11.90
2024-05-09T23:06:31.710Z,11.76
2024-05-09T23:09:08.204Z,11.82
2024-05-09T23:11:36.558Z,11.67
2024-05-09T23:14:08.826Z,11.52
2024-05-09T23:16:36.308Z,11.44
2024-05-09T23:19:07.240Z,11.38
2024-05-09T23:21:38.451Z,11.27
2024-05-09T23:24:12.085Z,11.17
2024-05-09T23:26:42.410Z,11.08
2024-05-09T23:29:12.615Z,11.00
2024-05-09T23:31:41.532Z,10.92
2024-05-09T23:34:14.523Z,10.88
2024-05-09T23:36:44.423Z,10.79
2024-05-09T23:39:17.411Z,10.69
2024-05-09T23:41:46.074Z,10.64
2024-05-09T23:44:16.188Z,10.61
2024-05-09T23:54:24.476Z,10.47
2024-05-09T23:57:21.652Z,10.40
